الصفحة الرئيسية
METAR-TAF:

METAR-TAF

مطار :

مطار الخرطوم الدولي

الخرطوم, السودان

دائرة عرض: 15-36N, خط طول: 032-33E, ارتفاع: 382 متر

مراقبة الطقس الحالي

تاريخ ووقت الإصدار 12ساعات و 27 دقيقة قبل الساعة 05:00UTC
ريح 4 عقدة من الجنوب الغربي
درجة الحرارة 28°درجة مئوية
الرطوبة 62%
ضغط 1013 hPa
الرؤية 10 كم أو أكثر
الغيوم لا تقل 1500 م ولا وجود لمزنة ركامية السحاب الأسود

METAR: HSSS 210500Z 23004KT CAVOK 28/20 Q1013 NOSIG

زمن: 20:27 (17:27 UTC)

توقعات

تاريخ ووقت الإصدار 12ساعات و 27 دقيقة قبل الساعة 05:00UTC
التوقعات صالحة من21 الساعة 06 UTC إلى 22 الساعة 12 UTC
ريح 7 عقدة من الجنوب الغربي تتزايد حتى 15 عقدة
الرؤية 10 كم أو أكثر
الغيوم لا تقل 1500 م ولا وجود لمزنة ركامية السحاب الأسود
مؤقت
من 21 الساعة 09 UTC إلى 21 الساعة 14 UTC
الرؤية 10 كم أو أكثر
غيوم قليلة على ارتفاع 4000 قدم
مؤقت
من 21 الساعة 18 UTC إلى 22 الساعة 04 UTC
الرؤية 10 كم أو أكثر
غيوم متفرقة على ارتفاع 14000 قدم

TAF: HSSS 210500Z 2106/2212 22007G15KT CAVOK TEMPO 2109/2114 9999 FEW040 TEMPO 2118/2204 9999 SCT140

أرصاد الطقس والتوقعات من أكثر من 4000 مطار (تقارير الطقس للمطار METAR والتنبؤ بالطقس بالمطارTAF).

المحطات المتاحة هي النقط الصفراء والحمراء على الخريطة.

حرك المؤشر فوق النقطة لمعرفة اسم المحطة.

ثم انقر لمعرفة أرصاد وتوقعات الطقس.

لتغيير الخارطة: اضغط على الأزرار الخضراء مع رمز الصليب الأسود للتكبير. على الزر الأخضر مع شرطة للتصغير، أو على الأسهم الخضراء للخرائط المجاورة.


METAR-TAF: